sensor_id;sensor_type;location;lat;lon;timestamp;pressure;altitude;pressure_sealevel;temperature
27715;BMP280;16051;53.024;8.630;2022-09-14T00:00:29;100760.50;;;14.18
27715;BMP280;16051;53.024;8.630;2022-09-14T00:04:32;100763.22;;;14.07
27715;BMP280;16051;53.024;8.630;2022-09-14T00:08:35;100763.88;;;13.97
27715;BMP280;16051;53.024;8.630;2022-09-14T00:12:37;100767.66;;;13.94
27715;BMP280;16051;53.024;8.630;2022-09-14T00:16:42;100767.66;;;13.94
27715;BMP280;16051;53.024;8.630;2022-09-14T00:20:44;100758.09;;;13.95
27715;BMP280;16051;53.024;8.630;2022-09-14T00:24:46;100757.59;;;13.96
27715;BMP280;16051;53.024;8.630;2022-09-14T00:29:05;100755.03;;;13.93
27715;BMP280;16051;53.024;8.630;2022-09-14T00:33:09;100758.78;;;13.90
27715;BMP280;16051;53.024;8.630;2022-09-14T00:37:11;100759.56;;;13.90
27715;BMP280;16051;53.024;8.630;2022-09-14T00:41:16;100746.66;;;13.87
27715;BMP280;16051;53.024;8.630;2022-09-14T00:45:27;100754.44;;;13.83
27715;BMP280;16051;53.024;8.630;2022-09-14T00:49:33;100748.38;;;13.79
27715;BMP280;16051;53.024;8.630;2022-09-14T00:53:36;100738.25;;;13.76
27715;BMP280;16051;53.024;8.630;2022-09-14T00:57:46;100742.25;;;13.69
27715;BMP280;16051;53.024;8.630;2022-09-14T01:01:49;100757.00;;;13.55
27715;BMP280;16051;53.024;8.630;2022-09-14T01:06:06;100755.44;;;13.49
27715;BMP280;16051;53.024;8.630;2022-09-14T01:10:27;100745.56;;;13.48
27715;BMP280;16051;53.024;8.630;2022-09-14T01:14:37;100746.81;;;13.47
27715;BMP280;16051;53.024;8.630;2022-09-14T01:18:45;100734.19;;;13.46
27715;BMP280;16051;53.024;8.630;2022-09-14T01:22:59;100716.47;;;13.38
27715;BMP280;16051;53.024;8.630;2022-09-14T01:27:24;100727.63;;;13.43
27715;BMP280;16051;53.024;8.630;2022-09-14T01:31:34;100732.69;;;13.45
27715;BMP280;16051;53.024;8.630;2022-09-14T01:35:42;100729.84;;;13.39
27715;BMP280;16051;53.024;8.630;2022-09-14T01:39:53;100733.06;;;13.32
27715;BMP280;16051;53.024;8.630;2022-09-14T01:44:05;100733.78;;;13.27
27715;BMP280;16051;53.024;8.630;2022-09-14T01:48:12;100726.13;;;13.16
27715;BMP280;16051;53.024;8.630;2022-09-14T01:52:35;100727.56;;;13.12
27715;BMP280;16051;53.024;8.630;2022-09-14T01:56:48;100727.75;;;13.08
27715;BMP280;16051;53.024;8.630;2022-09-14T02:00:54;100725.00;;;13.08
27715;BMP280;16051;53.024;8.630;2022-09-14T02:05:04;100724.44;;;13.04
27715;BMP280;16051;53.024;8.630;2022-09-14T02:09:14;100715.78;;;12.97
27715;BMP280;16051;53.024;8.630;2022-09-14T02:13:17;100722.00;;;12.92
27715;BMP280;16051;53.024;8.630;2022-09-14T02:17:21;100725.97;;;12.85
27715;BMP280;16051;53.024;8.630;2022-09-14T02:21:27;100722.59;;;12.75
27715;BMP280;16051;53.024;8.630;2022-09-14T02:25:31;100717.47;;;12.68
27715;BMP280;16051;53.024;8.630;2022-09-14T02:29:34;100708.88;;;12.66
27715;BMP280;16051;53.024;8.630;2022-09-14T02:33:47;100699.28;;;12.62
27715;BMP280;16051;53.024;8.630;2022-09-14T02:38:00;100697.44;;;12.59
27715;BMP280;16051;53.024;8.630;2022-09-14T02:42:27;100693.09;;;12.52
27715;BMP280;16051;53.024;8.630;2022-09-14T02:46:45;100680.16;;;12.44
27715;BMP280;16051;53.024;8.630;2022-09-14T02:50:56;100681.19;;;12.46
27715;BMP280;16051;53.024;8.630;2022-09-14T02:55:06;100681.25;;;12.52
27715;BMP280;16051;53.024;8.630;2022-09-14T02:59:10;100676.41;;;12.47
27715;BMP280;16051;53.024;8.630;2022-09-14T03:03:15;100670.88;;;12.47
27715;BMP280;16051;53.024;8.630;2022-09-14T03:07:20;100660.78;;;12.44
27715;BMP280;16051;53.024;8.630;2022-09-14T03:11:22;100662.22;;;12.39
27715;BMP280;16051;53.024;8.630;2022-09-14T03:15:25;100656.69;;;12.39
27715;BMP280;16051;53.024;8.630;2022-09-14T03:19:27;100658.41;;;12.37
27715;BMP280;16051;53.024;8.630;2022-09-14T03:23:35;100657.09;;;12.32
27715;BMP280;16051;53.024;8.630;2022-09-14T03:27:37;100660.13;;;12.34
27715;BMP280;16051;53.024;8.630;2022-09-14T03:31:39;100662.63;;;12.32
27715;BMP280;16051;53.024;8.630;2022-09-14T03:36:23;100667.16;;;12.29
27715;BMP280;16051;53.024;8.630;2022-09-14T03:40:28;100670.66;;;12.30
27715;BMP280;16051;53.024;8.630;2022-09-14T03:44:30;100671.97;;;12.34
27715;BMP280;16051;53.024;8.630;2022-09-14T03:48:32;100656.69;;;12.39
27715;BMP280;16051;53.024;8.630;2022-09-14T03:52:36;100650.66;;;12.41
27715;BMP280;16051;53.024;8.630;2022-09-14T03:56:40;100647.13;;;12.40
27715;BMP280;16051;53.024;8.630;2022-09-14T04:01:04;100652.47;;;12.44
27715;BMP280;16051;53.024;8.630;2022-09-14T04:05:07;100648.16;;;12.43
27715;BMP280;16051;53.024;8.630;2022-09-14T04:09:09;100639.44;;;12.50
27715;BMP280;16051;53.024;8.630;2022-09-14T04:13:12;100646.22;;;12.49
27715;BMP280;16051;53.024;8.630;2022-09-14T04:17:15;100638.19;;;12.51
27715;BMP280;16051;53.024;8.630;2022-09-14T04:21:45;100626.81;;;12.49
27715;BMP280;16051;53.024;8.630;2022-09-14T04:25:47;100623.44;;;12.39
27715;BMP280;16051;53.024;8.630;2022-09-14T04:29:51;100631.66;;;12.33
27715;BMP280;16051;53.024;8.630;2022-09-14T04:33:54;100636.88;;;12.26
27715;BMP280;16051;53.024;8.630;2022-09-14T04:37:57;100637.38;;;12.24
27715;BMP280;16051;53.024;8.630;2022-09-14T04:41:59;100638.34;;;12.21
27715;BMP280;16051;53.024;8.630;2022-09-14T04:46:04;100631.28;;;12.20
27715;BMP280;16051;53.024;8.630;2022-09-14T04:50:20;100625.47;;;12.18
27715;BMP280;16051;53.024;8.630;2022-09-14T04:54:22;100620.69;;;12.19
27715;BMP280;16051;53.024;8.630;2022-09-14T04:58:24;100617.38;;;12.15
27715;BMP280;16051;53.024;8.630;2022-09-14T05:02:29;100625.94;;;12.17
27715;BMP280;16051;53.024;8.630;2022-09-14T05:06:35;100637.50;;;12.36
27715;BMP280;16051;53.024;8.630;2022-09-14T05:10:37;100635.44;;;12.10
27715;BMP280;16051;53.024;8.630;2022-09-14T05:14:51;100629.59;;;12.08
27715;BMP280;16051;53.024;8.630;2022-09-14T05:18:58;100628.34;;;12.09
27715;BMP280;16051;53.024;8.630;2022-09-14T05:23:01;100621.78;;;12.07
27715;BMP280;16051;53.024;8.630;2022-09-14T05:27:04;100628.91;;;12.13
27715;BMP280;16051;53.024;8.630;2022-09-14T05:31:09;100636.75;;;12.15
27715;BMP280;16051;53.024;8.630;2022-09-14T05:35:14;100636.34;;;12.22
27715;BMP280;16051;53.024;8.630;2022-09-14T05:39:21;100631.16;;;12.29
27715;BMP280;16051;53.024;8.630;2022-09-14T05:43:24;100632.72;;;12.36
27715;BMP280;16051;53.024;8.630;2022-09-14T05:47:28;100632.53;;;12.40
27715;BMP280;16051;53.024;8.630;2022-09-14T05:51:33;100624.47;;;12.42
27715;BMP280;16051;53.024;8.630;2022-09-14T05:55:35;100621.28;;;12.49
27715;BMP280;16051;53.024;8.630;2022-09-14T05:59:37;100625.59;;;12.50
27715;BMP280;16051;53.024;8.630;2022-09-14T06:03:40;100623.63;;;12.56
27715;BMP280;16051;53.024;8.630;2022-09-14T06:07:44;100618.44;;;12.63
27715;BMP280;16051;53.024;8.630;2022-09-14T06:11:46;100624.50;;;12.67
27715;BMP280;16051;53.024;8.630;2022-09-14T06:16:24;100614.78;;;12.77
27715;BMP280;16051;53.024;8.630;2022-09-14T06:20:26;100618.19;;;12.87
27715;BMP280;16051;53.024;8.630;2022-09-14T06:24:35;100605.88;;;12.94
27715;BMP280;16051;53.024;8.630;2022-09-14T06:28:38;100607.19;;;12.98
27715;BMP280;16051;53.024;8.630;2022-09-14T06:32:40;100607.78;;;13.08
27715;BMP280;16051;53.024;8.630;2022-09-14T06:36:51;100606.38;;;13.18
27715;BMP280;16051;53.024;8.630;2022-09-14T06:40:57;100597.84;;;13.21
27715;BMP280;16051;53.024;8.630;2022-09-14T06:45:24;100600.44;;;13.30
27715;BMP280;16051;53.024;8.630;2022-09-14T06:49:45;100595.69;;;13.37
27715;BMP280;16051;53.024;8.630;2022-09-14T06:53:50;100598.50;;;13.42
27715;BMP280;16051;53.024;8.630;2022-09-14T06:58:08;100607.13;;;13.50
27715;BMP280;16051;53.024;8.630;2022-09-14T07:02:12;100618.31;;;13.61
27715;BMP280;16051;53.024;8.630;2022-09-14T07:06:17;100613.81;;;13.69
27715;BMP280;16051;53.024;8.630;2022-09-14T07:10:20;100617.16;;;13.78
27715;BMP280;16051;53.024;8.630;2022-09-14T07:14:24;100632.09;;;13.87
27715;BMP280;16051;53.024;8.630;2022-09-14T07:18:29;100642.00;;;13.99
27715;BMP280;16051;53.024;8.630;2022-09-14T07:22:54;100639.81;;;14.14
27715;BMP280;16051;53.024;8.630;2022-09-14T07:26:56;100638.63;;;14.32
27715;BMP280;16051;53.024;8.630;2022-09-14T07:31:01;100626.56;;;14.40
27715;BMP280;16051;53.024;8.630;2022-09-14T07:35:04;100624.34;;;14.55
27715;BMP280;16051;53.024;8.630;2022-09-14T07:39:09;100613.28;;;14.77
27715;BMP280;16051;53.024;8.630;2022-09-14T07:43:11;100601.44;;;14.94
27715;BMP280;16051;53.024;8.630;2022-09-14T07:47:15;100601.19;;;15.14
27715;BMP280;16051;53.024;8.630;2022-09-14T07:51:17;100605.00;;;15.33
27715;BMP280;16051;53.024;8.630;2022-09-14T07:55:19;100615.63;;;15.51
27715;BMP280;16051;53.024;8.630;2022-09-14T07:59:21;100609.53;;;15.69
27715;BMP280;16051;53.024;8.630;2022-09-14T08:03:31;100603.63;;;15.95
27715;BMP280;16051;53.024;8.630;2022-09-14T08:07:36;100605.66;;;16.06
27715;BMP280;16051;53.024;8.630;2022-09-14T08:11:38;100607.38;;;16.20
27715;BMP280;16051;53.024;8.630;2022-09-14T08:15:40;100604.03;;;16.21
27715;BMP280;16051;53.024;8.630;2022-09-14T08:19:44;100603.25;;;16.32
27715;BMP280;16051;53.024;8.630;2022-09-14T08:24:27;100596.91;;;16.37
27715;BMP280;16051;53.024;8.630;2022-09-14T08:28:29;100597.34;;;16.47
27715;BMP280;16051;53.024;8.630;2022-09-14T08:32:32;100596.47;;;16.68
27715;BMP280;16051;53.024;8.630;2022-09-14T08:36:40;100589.28;;;16.84
27715;BMP280;16051;53.024;8.630;2022-09-14T08:40:44;100588.41;;;17.00
27715;BMP280;16051;53.024;8.630;2022-09-14T08:44:53;100589.13;;;17.06
27715;BMP280;16051;53.024;8.630;2022-09-14T08:48:58;100582.94;;;17.19
27715;BMP280;16051;53.024;8.630;2022-09-14T08:53:07;100581.75;;;17.39
27715;BMP280;16051;53.024;8.630;2022-09-14T08:57:18;100575.75;;;17.59
27715;BMP280;16051;53.024;8.630;2022-09-14T09:01:35;100562.88;;;17.75
27715;BMP280;16051;53.024;8.630;2022-09-14T09:05:45;100560.03;;;17.80
27715;BMP280;16051;53.024;8.630;2022-09-14T09:09:55;100569.09;;;17.86
27715;BMP280;16051;53.024;8.630;2022-09-14T09:13:59;100569.63;;;17.85
27715;BMP280;16051;53.024;8.630;2022-09-14T09:18:19;100577.13;;;17.95
27715;BMP280;16051;53.024;8.630;2022-09-14T09:22:28;100575.16;;;18.09
27715;BMP280;16051;53.024;8.630;2022-09-14T09:26:32;100566.56;;;18.07
27715;BMP280;16051;53.024;8.630;2022-09-14T09:30:34;100559.69;;;18.08
27715;BMP280;16051;53.024;8.630;2022-09-14T09:34:46;100553.81;;;18.11
27715;BMP280;16051;53.024;8.630;2022-09-14T09:38:49;100552.00;;;18.14
27715;BMP280;16051;53.024;8.630;2022-09-14T09:43:06;100552.66;;;18.20
27715;BMP280;16051;53.024;8.630;2022-09-14T09:47:09;100542.47;;;18.41
27715;BMP280;16051;53.024;8.630;2022-09-14T09:51:14;100539.16;;;18.43
27715;BMP280;16051;53.024;8.630;2022-09-14T09:55:19;100539.91;;;18.43
27715;BMP280;16051;53.024;8.630;2022-09-14T09:59:31;100545.97;;;18.66
27715;BMP280;16051;53.024;8.630;2022-09-14T10:03:37;100541.53;;;18.89
27715;BMP280;16051;53.024;8.630;2022-09-14T10:07:53;100545.72;;;18.96
27715;BMP280;16051;53.024;8.630;2022-09-14T10:12:23;100536.16;;;18.91
27715;BMP280;16051;53.024;8.630;2022-09-14T10:16:33;100525.63;;;18.97
27715;BMP280;16051;53.024;8.630;2022-09-14T10:20:41;100515.22;;;19.11
27715;BMP280;16051;53.024;8.630;2022-09-14T10:24:54;100507.38;;;19.23
27715;BMP280;16051;53.024;8.630;2022-09-14T10:29:31;100526.97;;;19.23
27715;BMP280;16051;53.024;8.630;2022-09-14T10:33:46;100528.56;;;19.05
27715;BMP280;16051;53.024;8.630;2022-09-14T10:38:31;100524.13;;;18.96
27715;BMP280;16051;53.024;8.630;2022-09-14T10:42:39;100515.69;;;18.83
27715;BMP280;16051;53.024;8.630;2022-09-14T10:46:58;100522.03;;;18.84
27715;BMP280;16051;53.024;8.630;2022-09-14T10:51:33;100528.94;;;18.96
27715;BMP280;16051;53.024;8.630;2022-09-14T10:55:47;100533.09;;;19.08
27715;BMP280;16051;53.024;8.630;2022-09-14T10:59:59;100520.09;;;19.37
27715;BMP280;16051;53.024;8.630;2022-09-14T11:04:22;100503.13;;;19.74
27715;BMP280;16051;53.024;8.630;2022-09-14T11:08:43;100505.19;;;20.21
27715;BMP280;16051;53.024;8.630;2022-09-14T11:13:15;100508.38;;;20.51
27715;BMP280;16051;53.024;8.630;2022-09-14T11:22:08;100499.94;;;20.92
27715;BMP280;16051;53.024;8.630;2022-09-14T11:26:21;100499.94;;;20.92
27715;BMP280;16051;53.024;8.630;2022-09-14T11:30:37;100494.47;;;20.66
27715;BMP280;16051;53.024;8.630;2022-09-14T11:34:47;100495.97;;;20.46
27715;BMP280;16051;53.024;8.630;2022-09-14T11:39:00;100507.97;;;20.34
27715;BMP280;16051;53.024;8.630;2022-09-14T11:43:12;100505.06;;;20.60
27715;BMP280;16051;53.024;8.630;2022-09-14T11:47:20;100512.72;;;20.39
27715;BMP280;16051;53.024;8.630;2022-09-14T11:51:31;100503.81;;;20.14
27715;BMP280;16051;53.024;8.630;2022-09-14T11:55:35;100512.22;;;20.01
27715;BMP280;16051;53.024;8.630;2022-09-14T11:59:51;100503.41;;;19.97
27715;BMP280;16051;53.024;8.630;2022-09-14T12:04:12;100512.56;;;20.10
27715;BMP280;16051;53.024;8.630;2022-09-14T12:08:35;100509.06;;;20.31
27715;BMP280;16051;53.024;8.630;2022-09-14T12:12:39;100511.16;;;20.51
27715;BMP280;16051;53.024;8.630;2022-09-14T12:17:13;100501.06;;;20.69
27715;BMP280;16051;53.024;8.630;2022-09-14T12:21:23;100499.47;;;21.01
27715;BMP280;16051;53.024;8.630;2022-09-14T12:25:27;100495.81;;;21.71
27715;BMP280;16051;53.024;8.630;2022-09-14T12:29:32;100491.97;;;21.89
27715;BMP280;16051;53.024;8.630;2022-09-14T12:39:06;100495.00;;;21.55
27715;BMP280;16051;53.024;8.630;2022-09-14T12:43:52;100477.19;;;21.24
27715;BMP280;16051;53.024;8.630;2022-09-14T12:47:54;100488.28;;;21.30
27715;BMP280;16051;53.024;8.630;2022-09-14T12:52:39;100492.38;;;21.29
27715;BMP280;16051;53.024;8.630;2022-09-14T12:57:08;100485.63;;;21.03
27715;BMP280;16051;53.024;8.630;2022-09-14T13:01:33;100489.59;;;21.08
27715;BMP280;16051;53.024;8.630;2022-09-14T13:05:36;100478.94;;;21.35
27715;BMP280;16051;53.024;8.630;2022-09-14T13:09:46;100475.56;;;21.65
27715;BMP280;16051;53.024;8.630;2022-09-14T13:13:55;100471.16;;;21.20
27715;BMP280;16051;53.024;8.630;2022-09-14T13:18:00;100456.75;;;20.95
27715;BMP280;16051;53.024;8.630;2022-09-14T13:22:22;100458.69;;;20.80
27715;BMP280;16051;53.024;8.630;2022-09-14T13:26:29;100451.78;;;20.60
27715;BMP280;16051;53.024;8.630;2022-09-14T13:30:34;100449.50;;;20.58
27715;BMP280;16051;53.024;8.630;2022-09-14T13:34:38;100447.53;;;20.67
27715;BMP280;16051;53.024;8.630;2022-09-14T13:38:42;100438.59;;;21.17
27715;BMP280;16051;53.024;8.630;2022-09-14T13:42:52;100438.53;;;20.89
27715;BMP280;16051;53.024;8.630;2022-09-14T13:46:57;100427.81;;;20.80
27715;BMP280;16051;53.024;8.630;2022-09-14T13:51:00;100433.66;;;20.61
27715;BMP280;16051;53.024;8.630;2022-09-14T13:55:26;100424.59;;;20.55
27715;BMP280;16051;53.024;8.630;2022-09-14T13:59:30;100425.38;;;20.55
27715;BMP280;16051;53.024;8.630;2022-09-14T14:03:41;100419.56;;;20.20
27715;BMP280;16051;53.024;8.630;2022-09-14T14:07:47;100419.50;;;20.12
27715;BMP280;16051;53.024;8.630;2022-09-14T14:11:55;100414.72;;;20.20
27715;BMP280;16051;53.024;8.630;2022-09-14T14:16:17;100408.78;;;20.24
27715;BMP280;16051;53.024;8.630;2022-09-14T14:20:33;100402.25;;;20.08
27715;BMP280;16051;53.024;8.630;2022-09-14T14:24:36;100401.22;;;20.52
27715;BMP280;16051;53.024;8.630;2022-09-14T14:28:40;100397.94;;;20.61
27715;BMP280;16051;53.024;8.630;2022-09-14T14:32:49;100394.34;;;20.33
27715;BMP280;16051;53.024;8.630;2022-09-14T14:36:52;100390.78;;;20.19
27715;BMP280;16051;53.024;8.630;2022-09-14T14:40:55;100382.63;;;20.08
27715;BMP280;16051;53.024;8.630;2022-09-14T14:44:58;100388.88;;;20.14
27715;BMP280;16051;53.024;8.630;2022-09-14T14:49:02;100383.63;;;20.10
27715;BMP280;16051;53.024;8.630;2022-09-14T14:53:09;100377.84;;;19.95
27715;BMP280;16051;53.024;8.630;2022-09-14T14:57:11;100370.19;;;19.96
27715;BMP280;16051;53.024;8.630;2022-09-14T15:01:13;100378.09;;;19.84
27715;BMP280;16051;53.024;8.630;2022-09-14T15:05:29;100370.22;;;19.83
27715;BMP280;16051;53.024;8.630;2022-09-14T15:09:32;100367.06;;;19.99
27715;BMP280;16051;53.024;8.630;2022-09-14T15:13:34;100371.06;;;19.91
27715;BMP280;16051;53.024;8.630;2022-09-14T15:17:36;100363.22;;;19.89
27715;BMP280;16051;53.024;8.630;2022-09-14T15:21:46;100369.38;;;19.88
27715;BMP280;16051;53.024;8.630;2022-09-14T15:25:50;100361.41;;;19.79
27715;BMP280;16051;53.024;8.630;2022-09-14T15:29:52;100362.13;;;19.92
27715;BMP280;16051;53.024;8.630;2022-09-14T15:33:54;100364.75;;;20.11
27715;BMP280;16051;53.024;8.630;2022-09-14T15:37:59;100351.47;;;20.11
27715;BMP280;16051;53.024;8.630;2022-09-14T15:42:01;100340.75;;;20.02
27715;BMP280;16051;53.024;8.630;2022-09-14T15:46:13;100359.41;;;20.00
27715;BMP280;16051;53.024;8.630;2022-09-14T15:50:15;100352.34;;;19.86
27715;BMP280;16051;53.024;8.630;2022-09-14T15:54:29;100349.34;;;19.84
27715;BMP280;16051;53.024;8.630;2022-09-14T15:58:31;100351.19;;;19.81
27715;BMP280;16051;53.024;8.630;2022-09-14T16:02:43;100352.38;;;19.73
27715;BMP280;16051;53.024;8.630;2022-09-14T16:06:46;100354.75;;;19.69
27715;BMP280;16051;53.024;8.630;2022-09-14T16:11:10;100355.84;;;19.65
27715;BMP280;16051;53.024;8.630;2022-09-14T16:15:12;100348.59;;;19.49
27715;BMP280;16051;53.024;8.630;2022-09-14T16:19:14;100340.41;;;19.38
27715;BMP280;16051;53.024;8.630;2022-09-14T16:23:16;100343.72;;;19.37
27715;BMP280;16051;53.024;8.630;2022-09-14T16:27:20;100350.34;;;19.13
27715;BMP280;16051;53.024;8.630;2022-09-14T16:31:27;100351.00;;;19.06
27715;BMP280;16051;53.024;8.630;2022-09-14T16:35:38;100354.09;;;19.02
27715;BMP280;16051;53.024;8.630;2022-09-14T16:40:03;100348.81;;;18.86
27715;BMP280;16051;53.024;8.630;2022-09-14T16:44:12;100353.13;;;18.87
27715;BMP280;16051;53.024;8.630;2022-09-14T16:48:15;100362.69;;;18.78
27715;BMP280;16051;53.024;8.630;2022-09-14T16:52:17;100357.41;;;18.75
27715;BMP280;16051;53.024;8.630;2022-09-14T16:56:22;100366.56;;;18.75
27715;BMP280;16051;53.024;8.630;2022-09-14T17:00:37;100368.81;;;18.63
27715;BMP280;16051;53.024;8.630;2022-09-14T17:04:39;100369.34;;;18.62
27715;BMP280;16051;53.024;8.630;2022-09-14T17:08:51;100367.19;;;18.55
27715;BMP280;16051;53.024;8.630;2022-09-14T17:12:54;100356.16;;;18.44
27715;BMP280;16051;53.024;8.630;2022-09-14T17:17:11;100363.00;;;18.30
27715;BMP280;16051;53.024;8.630;2022-09-14T17:21:16;100364.28;;;18.29
27715;BMP280;16051;53.024;8.630;2022-09-14T17:25:19;100376.75;;;18.28
27715;BMP280;16051;53.024;8.630;2022-09-14T17:29:23;100367.91;;;18.24
27715;BMP280;16051;53.024;8.630;2022-09-14T17:33:29;100378.53;;;18.12
27715;BMP280;16051;53.024;8.630;2022-09-14T17:37:34;100365.41;;;18.07
27715;BMP280;16051;53.024;8.630;2022-09-14T17:41:36;100368.06;;;17.99
27715;BMP280;16051;53.024;8.630;2022-09-14T17:45:51;100363.59;;;17.91
27715;BMP280;16051;53.024;8.630;2022-09-14T17:49:55;100364.75;;;17.82
27715;BMP280;16051;53.024;8.630;2022-09-14T17:53:59;100359.78;;;17.75
27715;BMP280;16051;53.024;8.630;2022-09-14T17:58:02;100361.00;;;17.61
27715;BMP280;16051;53.024;8.630;2022-09-14T18:02:07;100358.78;;;17.54
27715;BMP280;16051;53.024;8.630;2022-09-14T18:06:12;100366.84;;;17.39
27715;BMP280;16051;53.024;8.630;2022-09-14T18:10:14;100368.50;;;17.29
27715;BMP280;16051;53.024;8.630;2022-09-14T18:14:18;100380.00;;;17.19
27715;BMP280;16051;53.024;8.630;2022-09-14T18:18:41;100376.59;;;17.08
27715;BMP280;16051;53.024;8.630;2022-09-14T18:22:44;100373.31;;;17.04
27715;BMP280;16051;53.024;8.630;2022-09-14T18:26:49;100377.47;;;16.97
27715;BMP280;16051;53.024;8.630;2022-09-14T18:30:59;100374.66;;;16.97
27715;BMP280;16051;53.024;8.630;2022-09-14T18:35:01;100369.94;;;16.92
27715;BMP280;16051;53.024;8.630;2022-09-14T18:39:06;100373.53;;;16.87
27715;BMP280;16051;53.024;8.630;2022-09-14T18:43:09;100382.94;;;16.84
27715;BMP280;16051;53.024;8.630;2022-09-14T18:47:11;100381.72;;;16.80
27715;BMP280;16051;53.024;8.630;2022-09-14T18:51:14;100378.91;;;16.80
27715;BMP280;16051;53.024;8.630;2022-09-14T18:55:17;100388.03;;;16.80
27715;BMP280;16051;53.024;8.630;2022-09-14T18:59:20;100391.63;;;16.75
27715;BMP280;16051;53.024;8.630;2022-09-14T19:03:22;100391.72;;;16.64
27715;BMP280;16051;53.024;8.630;2022-09-14T19:07:36;100390.25;;;16.63
27715;BMP280;16051;53.024;8.630;2022-09-14T19:11:39;100393.78;;;16.63
27715;BMP280;16051;53.024;8.630;2022-09-14T19:15:41;100395.56;;;16.61
27715;BMP280;16051;53.024;8.630;2022-09-14T19:19:45;100404.69;;;16.61
27715;BMP280;16051;53.024;8.630;2022-09-14T19:23:48;100402.72;;;16.56
27715;BMP280;16051;53.024;8.630;2022-09-14T19:28:25;100406.50;;;16.53
27715;BMP280;16051;53.024;8.630;2022-09-14T19:32:27;100410.31;;;16.50
27715;BMP280;16051;53.024;8.630;2022-09-14T19:36:31;100409.13;;;16.46
27715;BMP280;16051;53.024;8.630;2022-09-14T19:40:56;100411.44;;;16.42
27715;BMP280;16051;53.024;8.630;2022-09-14T19:44:59;100403.63;;;16.35
27715;BMP280;16051;53.024;8.630;2022-09-14T19:49:02;100408.72;;;16.31
27715;BMP280;16051;53.024;8.630;2022-09-14T19:53:04;100415.84;;;16.26
27715;BMP280;16051;53.024;8.630;2022-09-14T19:57:06;100400.94;;;16.18
27715;BMP280;16051;53.024;8.630;2022-09-14T20:01:10;100401.75;;;16.13
27715;BMP280;16051;53.024;8.630;2022-09-14T20:05:21;100410.19;;;16.02
27715;BMP280;16051;53.024;8.630;2022-09-14T20:09:24;100412.75;;;15.94
27715;BMP280;16051;53.024;8.630;2022-09-14T20:13:43;100409.78;;;15.87
27715;BMP280;16051;53.024;8.630;2022-09-14T20:18:06;100414.63;;;15.75
27715;BMP280;16051;53.024;8.630;2022-09-14T20:22:09;100418.44;;;15.72
27715;BMP280;16051;53.024;8.630;2022-09-14T20:26:47;100417.72;;;15.66
27715;BMP280;16051;53.024;8.630;2022-09-14T20:30:57;100407.38;;;15.61
27715;BMP280;16051;53.024;8.630;2022-09-14T20:35:00;100418.06;;;15.51
27715;BMP280;16051;53.024;8.630;2022-09-14T20:39:18;100412.22;;;15.38
27715;BMP280;16051;53.024;8.630;2022-09-14T20:43:23;100411.78;;;15.23
27715;BMP280;16051;53.024;8.630;2022-09-14T20:47:32;100408.28;;;15.11
27715;BMP280;16051;53.024;8.630;2022-09-14T20:51:51;100408.06;;;14.98
27715;BMP280;16051;53.024;8.630;2022-09-14T20:56:00;100399.00;;;14.87
27715;BMP280;16051;53.024;8.630;2022-09-14T21:00:08;100405.56;;;14.78
27715;BMP280;16051;53.024;8.630;2022-09-14T21:04:17;100401.03;;;14.64
27715;BMP280;16051;53.024;8.630;2022-09-14T21:08:28;100397.00;;;14.54
27715;BMP280;16051;53.024;8.630;2022-09-14T21:12:47;100401.78;;;14.48
27715;BMP280;16051;53.024;8.630;2022-09-14T21:16:53;100400.78;;;14.34
27715;BMP280;16051;53.024;8.630;2022-09-14T21:20:56;100396.97;;;14.32
27715;BMP280;16051;53.024;8.630;2022-09-14T21:25:26;100387.38;;;14.21
27715;BMP280;16051;53.024;8.630;2022-09-14T21:29:28;100388.88;;;14.11
27715;BMP280;16051;53.024;8.630;2022-09-14T21:33:32;100400.22;;;14.08
27715;BMP280;16051;53.024;8.630;2022-09-14T21:37:34;100395.69;;;14.05
27715;BMP280;16051;53.024;8.630;2022-09-14T21:41:39;100396.44;;;14.05
27715;BMP280;16051;53.024;8.630;2022-09-14T21:45:44;100400.97;;;13.97
27715;BMP280;16051;53.024;8.630;2022-09-14T21:49:47;100394.13;;;13.87
27715;BMP280;16051;53.024;8.630;2022-09-14T21:53:51;100395.88;;;13.79
27715;BMP280;16051;53.024;8.630;2022-09-14T21:57:56;100385.53;;;13.74
27715;BMP280;16051;53.024;8.630;2022-09-14T22:02:17;100392.06;;;13.71
27715;BMP280;16051;53.024;8.630;2022-09-14T22:06:24;100401.41;;;13.68
27715;BMP280;16051;53.024;8.630;2022-09-14T22:10:27;100412.50;;;13.68
27715;BMP280;16051;53.024;8.630;2022-09-14T22:14:55;100406.22;;;13.73
27715;BMP280;16051;53.024;8.630;2022-09-14T22:19:22;100405.47;;;13.78
27715;BMP280;16051;53.024;8.630;2022-09-14T22:23:24;100398.66;;;13.73
27715;BMP280;16051;53.024;8.630;2022-09-14T22:27:41;100400.91;;;13.75
27715;BMP280;16051;53.024;8.630;2022-09-14T22:31:46;100396.38;;;13.72
27715;BMP280;16051;53.024;8.630;2022-09-14T22:35:51;100391.06;;;13.68
27715;BMP280;16051;53.024;8.630;2022-09-14T22:39:53;100391.06;;;13.68
27715;BMP280;16051;53.024;8.630;2022-09-14T22:44:14;100387.75;;;13.64
27715;BMP280;16051;53.024;8.630;2022-09-14T22:48:18;100393.31;;;13.59
27715;BMP280;16051;53.024;8.630;2022-09-14T22:52:21;100393.31;;;13.59
27715;BMP280;16051;53.024;8.630;2022-09-14T22:56:26;100395.31;;;13.58
27715;BMP280;16051;53.024;8.630;2022-09-14T23:00:28;100395.56;;;13.55
27715;BMP280;16051;53.024;8.630;2022-09-14T23:04:32;100389.72;;;13.47
27715;BMP280;16051;53.024;8.630;2022-09-14T23:08:35;100392.03;;;13.49
27715;BMP280;16051;53.024;8.630;2022-09-14T23:12:37;100385.66;;;13.43
27715;BMP280;16051;53.024;8.630;2022-09-14T23:16:41;100388.97;;;13.41
27715;BMP280;16051;53.024;8.630;2022-09-14T23:20:47;100384.91;;;13.37
27715;BMP280;16051;53.024;8.630;2022-09-14T23:24:49;100382.34;;;13.27
27715;BMP280;16051;53.024;8.630;2022-09-14T23:28:53;100383.84;;;13.23
27715;BMP280;16051;53.024;8.630;2022-09-14T23:32:55;100387.34;;;13.18
27715;BMP280;16051;53.024;8.630;2022-09-14T23:36:59;100390.09;;;13.12
27715;BMP280;16051;53.024;8.630;2022-09-14T23:41:01;100379.22;;;13.09